Time;durP1;ratioP1;P1;durP2;ratioP2;P2;SDS_P1;SDS_P2;PMS_P1;PMS_P2;Temp;Humidity;BMP_temperature;BMP_pressure;BME280_temperature;BME280_humidity;BME280_pressure;Samples;Min_cycle;Max_cycle;Signal;HPM_P1;HPM_P2
2023/05/21 00:00:22;;;;;;;;;6.00;4.67;;;;;;;;5057003;28;45380;-78
2023/05/21 00:02:48;;;;;;;;;6.00;4.00;;;;;;;;5056477;28;45504;-78
2023/05/21 00:05:14;;;;;;;;;4.00;3.00;;;;;;;;5056781;28;45380;-78
2023/05/21 00:07:39;;;;;;;;;4.50;3.00;;;;;;;;5038992;28;45469;-78
2023/05/21 00:10:05;;;;;;;;;4.75;4.75;;;;;;;;5057012;28;45343;-78
2023/05/21 00:12:31;;;;;;;;;4.00;4.00;;;;;;;;5056405;28;45402;-78
2023/05/21 00:14:56;;;;;;;;;5.25;4.00;;;;;;;;5056687;28;45379;-78
2023/05/21 00:17:22;;;;;;;;;6.00;4.00;;;;;;;;5056827;28;45324;-78
2023/05/21 00:19:49;;;;;;;;;4.25;4.00;;;;;;;;5056133;28;45549;-78
2023/05/21 00:22:14;;;;;;;;;5.00;5.00;;;;;;;;5056622;28;46209;-78
2023/05/21 00:24:40;;;;;;;;;6.00;4.75;;;;;;;;5056315;28;45346;-77
2023/05/21 00:27:05;;;;;;;;;6.00;4.50;;;;;;;;5056832;28;45355;-78
2023/05/21 00:29:30;;;;;;;;;5.00;4.33;;;;;;;;5056531;28;45587;-78
2023/05/21 00:31:55;;;;;;;;;6.00;5.00;;;;;;;;5056375;28;45564;-78
2023/05/21 00:34:20;;;;;;;;;8.33;6.67;;;;;;;;5055978;28;45470;-78
2023/05/21 00:36:46;;;;;;;;;5.00;5.00;;;;;;;;5056473;28;45442;-78
2023/05/21 00:39:12;;;;;;;;;6.67;5.00;;;;;;;;5056514;28;45399;-78
2023/05/21 00:41:38;;;;;;;;;5.75;4.00;;;;;;;;5056113;28;45619;-78
2023/05/21 00:44:04;;;;;;;;;7.00;5.50;;;;;;;;5056007;28;45844;-78
2023/05/21 00:46:30;;;;;;;;;7.75;4.50;;;;;;;;5013093;28;1254295;-78
2023/05/21 00:48:56;;;;;;;;;8.50;5.25;;;;;;;;5057158;28;45270;-78
2023/05/21 00:51:22;;;;;;;;;6.50;5.00;;;;;;;;5057133;28;45472;-78
2023/05/21 00:53:50;;;;;;;;;8.00;5.75;;;;;;;;5057355;28;45258;-78
2023/05/21 00:56:15;;;;;;;;;9.25;4.00;;;;;;;;5057215;28;45363;-78
2023/05/21 00:58:40;;;;;;;;;4.75;4.75;;;;;;;;5057262;28;45407;-78
2023/05/21 01:01:05;;;;;;;;;8.67;5.00;;;;;;;;5057043;28;46554;-78
2023/05/21 01:03:37;;;;;;;;;8.00;5.00;;;;;;;;5056727;28;45343;-78
2023/05/21 01:06:03;;;;;;;;;7.50;4.00;;;;;;;;5057158;28;45352;-78
2023/05/21 01:08:28;;;;;;;;;5.75;5.50;;;;;;;;5056986;28;45605;-78
2023/05/21 01:10:54;;;;;;;;;12.00;6.75;;;;;;;;5056860;28;45823;-78
2023/05/21 01:13:21;;;;;;;;;6.00;4.75;;;;;;;;5056687;28;45355;-78
2023/05/21 01:15:47;;;;;;;;;4.00;4.00;;;;;;;;5056076;28;45496;-78
2023/05/21 01:18:13;;;;;;;;;6.75;5.75;;;;;;;;5056988;28;45332;-78
2023/05/21 01:20:38;;;;;;;;;6.00;4.50;;;;;;;;5056564;28;46606;-78
2023/05/21 01:23:04;;;;;;;;;6.00;5.50;;;;;;;;5056856;28;45276;-78
2023/05/21 01:25:29;;;;;;;;;5.00;5.00;;;;;;;;5056945;28;45492;-78
2023/05/21 01:27:54;;;;;;;;;8.00;5.33;;;;;;;;5056839;28;45407;-78
2023/05/21 01:30:21;;;;;;;;;8.25;5.25;;;;;;;;5056126;28;46235;-78
2023/05/21 01:32:49;;;;;;;;;10.25;4.00;;;;;;;;5056335;28;45439;-78
2023/05/21 01:35:22;;;;;;;;;9.50;6.75;;;;;;;;5056804;28;45553;-78
2023/05/21 01:37:54;;;;;;;;;7.75;5.00;;;;;;;;5056822;28;45359;-78
2023/05/21 01:40:30;;;;;;;;;7.25;5.00;;;;;;;;5056387;28;45503;-78
2023/05/21 01:42:56;;;;;;;;;3.50;3.50;;;;;;;;5056715;28;45294;-78
2023/05/21 01:45:22;;;;;;;;;8.00;6.00;;;;;;;;5056233;28;45467;-79
2023/05/21 01:47:49;;;;;;;;;8.50;6.25;;;;;;;;5056309;28;45326;-78
2023/05/21 01:50:15;;;;;;;;;12.50;8.00;;;;;;;;5056357;28;45431;-79
2023/05/21 01:53:02;;;;;;;;;12.75;6.00;;;;;;;;5056244;28;45352;-78
2023/05/21 01:55:30;;;;;;;;;6.00;5.25;;;;;;;;5056418;28;45408;-78
2023/05/21 01:57:55;;;;;;;;;6.50;5.00;;;;;;;;5056269;28;45431;-79
2023/05/21 02:00:21;;;;;;;;;9.50;6.75;;;;;;;;5056096;28;45272;-78
2023/05/21 02:02:46;;;;;;;;;12.00;6.00;;;;;;;;5055775;28;45448;-78
2023/05/21 02:05:11;;;;;;;;;10.25;8.00;;;;;;;;5056218;28;45292;-78
2023/05/21 02:07:37;;;;;;;;;9.00;7.33;;;;;;;;5056247;28;45222;-78
2023/05/21 02:10:02;;;;;;;;;8.50;6.25;;;;;;;;5055842;28;46570;-78
2023/05/21 02:12:28;;;;;;;;;13.00;6.75;;;;;;;;5055960;28;45439;-77
2023/05/21 02:14:54;;;;;;;;;11.00;5.75;;;;;;;;5056105;28;45302;-78
2023/05/21 02:17:20;;;;;;;;;11.25;8.25;;;;;;;;5055756;28;45299;-78
2023/05/21 02:19:45;;;;;;;;;7.75;6.00;;;;;;;;5055721;28;45389;-78
2023/05/21 02:22:11;;;;;;;;;8.00;7.00;;;;;;;;5056008;28;45339;-78
2023/05/21 02:24:36;;;;;;;;;15.33;8.00;;;;;;;;5056116;28;45403;-78
2023/05/21 02:27:01;;;;;;;;;11.67;7.00;;;;;;;;5055767;28;45341;-78
2023/05/21 02:29:27;;;;;;;;;11.50;6.25;;;;;;;;5055664;28;45486;-78
2023/05/21 02:31:52;;;;;;;;;14.25;7.00;;;;;;;;5055468;28;45355;-78
2023/05/21 02:34:19;;;;;;;;;10.33;8.00;;;;;;;;5055914;28;45427;-79
2023/05/21 02:36:47;;;;;;;;;8.50;6.75;;;;;;;;5055751;28;45521;-78
2023/05/21 02:39:12;;;;;;;;;9.25;6.75;;;;;;;;5055592;28;47110;-78
2023/05/21 02:41:37;;;;;;;;;9.00;6.00;;;;;;;;5055645;28;45340;-78
2023/05/21 02:44:02;;;;;;;;;8.00;6.33;;;;;;;;5055620;28;45278;-78
2023/05/21 02:46:28;;;;;;;;;13.00;7.67;;;;;;;;5055269;28;45356;-78
2023/05/21 02:48:53;;;;;;;;;6.00;6.00;;;;;;;;5055569;28;46382;-78
2023/05/21 02:51:18;;;;;;;;;11.33;6.67;;;;;;;;5055423;28;45569;-78
2023/05/21 02:53:43;;;;;;;;;7.33;6.67;;;;;;;;5055728;28;45393;-78
2023/05/21 02:56:09;;;;;;;;;7.67;7.67;;;;;;;;5055613;28;45531;-78
2023/05/21 02:58:34;;;;;;;;;12.75;6.00;;;;;;;;5055248;28;45371;-78
2023/05/21 03:00:59;;;;;;;;;10.00;7.50;;;;;;;;5055053;28;45420;-78
2023/05/21 03:03:24;;;;;;;;;12.25;8.00;;;;;;;;5055632;28;45347;-78
2023/05/21 03:05:50;;;;;;;;;11.00;6.25;;;;;;;;5055935;28;45483;-78
2023/05/21 03:08:15;;;;;;;;;12.33;8.00;;;;;;;;5055175;28;46417;-78
2023/05/21 03:10:41;;;;;;;;;13.50;6.00;;;;;;;;5055293;28;45458;-78
2023/05/21 03:13:06;;;;;;;;;12.33;8.00;;;;;;;;5055215;28;45479;-78
2023/05/21 03:15:32;;;;;;;;;12.33;6.00;;;;;;;;5055004;28;45440;-78
2023/05/21 03:17:57;;;;;;;;;12.00;8.00;;;;;;;;5055107;28;46384;-78
2023/05/21 03:20:22;;;;;;;;;7.75;5.75;;;;;;;;5055075;28;45379;-78
2023/05/21 03:22:48;;;;;;;;;9.33;5.33;;;;;;;;5055379;28;45316;-77
2023/05/21 03:25:13;;;;;;;;;9.25;5.25;;;;;;;;5055179;28;45304;-78
2023/05/21 03:27:39;;;;;;;;;12.33;6.67;;;;;;;;5055135;28;46600;-78
2023/05/21 03:30:04;;;;;;;;;7.75;5.00;;;;;;;;5054682;28;45437;-78
2023/05/21 03:32:32;;;;;;;;;6.00;5.00;;;;;;;;5055095;28;45308;-78
2023/05/21 03:34:57;;;;;;;;;7.50;6.00;;;;;;;;5055243;28;45428;-78
2023/05/21 03:37:22;;;;;;;;;11.33;8.33;;;;;;;;5054883;28;45321;-78
2023/05/21 03:39:48;;;;;;;;;5.67;5.67;;;;;;;;5058004;28;45414;-78
2023/05/21 03:42:13;;;;;;;;;9.67;6.00;;;;;;;;5058698;28;45303;-78
2023/05/21 03:44:38;;;;;;;;;10.33;8.00;;;;;;;;5058041;28;45368;-78
2023/05/21 03:47:04;;;;;;;;;6.00;6.00;;;;;;;;5058475;28;46266;-79
2023/05/21 03:49:29;;;;;;;;;8.25;5.75;;;;;;;;5058250;28;45397;-78
2023/05/21 03:51:54;;;;;;;;;9.25;7.00;;;;;;;;5058304;28;45399;-78
2023/05/21 03:54:19;;;;;;;;;12.33;9.00;;;;;;;;5058453;28;45340;-78
2023/05/21 03:56:45;;;;;;;;;10.67;10.67;;;;;;;;5057934;28;45677;-78
2023/05/21 03:59:10;;;;;;;;;8.67;6.33;;;;;;;;5057820;28;45379;-79
2023/05/21 04:01:35;;;;;;;;;13.00;6.33;;;;;;;;5058170;28;45427;-78
2023/05/21 04:04:01;;;;;;;;;8.00;7.00;;;;;;;;5058126;28;45361;-78
2023/05/21 04:06:26;;;;;;;;;11.50;9.50;;;;;;;;5058038;28;46246;-78
2023/05/21 04:08:52;;;;;;;;;10.75;8.00;;;;;;;;5057714;28;45473;-78
2023/05/21 04:11:17;;;;;;;;;10.00;7.00;;;;;;;;5058023;28;45384;-77
2023/05/21 04:13:42;;;;;;;;;14.33;8.00;;;;;;;;5057443;28;45802;-78
2023/05/21 04:16:08;;;;;;;;;9.00;5.33;;;;;;;;5057828;28;46126;-78
2023/05/21 04:18:33;;;;;;;;;8.00;7.50;;;;;;;;5057738;28;45447;-78
2023/05/21 04:20:59;;;;;;;;;8.50;6.75;;;;;;;;5057699;28;45329;-78
2023/05/21 04:23:24;;;;;;;;;11.75;8.00;;;;;;;;5057750;28;45542;-78
2023/05/21 04:25:50;;;;;;;;;12.00;10.75;;;;;;;;5057626;28;45514;-78
2023/05/21 04:28:18;;;;;;;;;15.00;11.33;;;;;;;;5057457;28;45345;-78
2023/05/21 04:30:45;;;;;;;;;15.50;10.75;;;;;;;;5057602;28;45376;-78
2023/05/21 04:33:10;;;;;;;;;11.00;7.50;;;;;;;;5057771;28;45447;-78
2023/05/21 04:35:35;;;;;;;;;10.33;9.00;;;;;;;;5057466;28;46525;-78
2023/05/21 04:38:00;;;;;;;;;10.50;6.00;;;;;;;;5057521;28;45341;-79
2023/05/21 04:40:25;;;;;;;;;14.00;8.33;;;;;;;;5057206;28;45423;-78
2023/05/21 04:42:51;;;;;;;;;12.00;10.00;;;;;;;;5057521;28;45480;-78
2023/05/21 04:45:19;;;;;;;;;11.33;7.00;;;;;;;;5057281;28;46178;-78
2023/05/21 04:47:45;;;;;;;;;12.50;8.75;;;;;;;;5057423;28;45388;-78
2023/05/21 04:50:10;;;;;;;;;11.33;7.67;;;;;;;;5056376;28;45337;-78
2023/05/21 04:52:39;;;;;;;;;12.00;8.50;;;;;;;;5057623;28;45294;-78
2023/05/21 04:55:04;;;;;;;;;13.50;8.75;;;;;;;;5056857;28;46649;-78
2023/05/21 04:57:29;;;;;;;;;11.75;8.50;;;;;;;;5057360;28;45763;-78
2023/05/21 04:59:56;;;;;;;;;7.00;6.00;;;;;;;;5057376;28;45371;-78
2023/05/21 05:02:21;;;;;;;;;10.25;8.25;;;;;;;;5057228;28;45415;-78
2023/05/21 05:04:47;;;;;;;;;11.67;7.67;;;;;;;;5057112;28;46324;-78
2023/05/21 05:07:12;;;;;;;;;11.00;7.00;;;;;;;;5057101;28;45390;-78
2023/05/21 05:09:37;;;;;;;;;10.00;9.50;;;;;;;;5056742;28;45346;-79
2023/05/21 05:12:03;;;;;;;;;6.33;6.33;;;;;;;;5057089;28;45645;-79
2023/05/21 05:14:28;;;;;;;;;15.00;8.75;;;;;;;;5056939;28;45438;-79
2023/05/21 05:16:59;;;;;;;;;11.67;7.67;;;;;;;;5057138;28;45443;-78
2023/05/21 05:19:25;;;;;;;;;10.00;9.50;;;;;;;;5056987;28;45376;-79
2023/05/21 05:21:50;;;;;;;;;15.75;10.75;;;;;;;;5056917;28;45317;-78
2023/05/21 05:24:15;;;;;;;;;9.67;8.00;;;;;;;;5056558;28;45354;-78
2023/05/21 05:26:40;;;;;;;;;12.00;7.67;;;;;;;;5056747;28;45412;-78
2023/05/21 05:29:05;;;;;;;;;7.00;6.67;;;;;;;;5056850;28;45470;-78
2023/05/21 05:31:31;;;;;;;;;7.00;6.67;;;;;;;;5056944;28;45257;-78
2023/05/21 05:33:57;;;;;;;;;14.67;9.33;;;;;;;;5056574;28;45349;-79
2023/05/21 05:36:23;;;;;;;;;13.25;10.75;;;;;;;;5056487;28;45443;-78
2023/05/21 05:38:48;;;;;;;;;8.50;8.00;;;;;;;;5056493;28;45382;-78
2023/05/21 05:41:13;;;;;;;;;10.67;10.00;;;;;;;;5056658;28;45654;-78
2023/05/21 05:43:38;;;;;;;;;11.67;10.00;;;;;;;;5056659;28;45992;-79
2023/05/21 05:46:03;;;;;;;;;17.67;11.00;;;;;;;;5056320;28;45450;-78
2023/05/21 05:48:29;;;;;;;;;11.67;9.33;;;;;;;;5056771;28;45498;-78
2023/05/21 05:50:54;;;;;;;;;15.25;10.50;;;;;;;;5056668;28;45586;-78
2023/05/21 05:53:20;;;;;;;;;13.00;10.50;;;;;;;;5056025;28;45571;-78
2023/05/21 05:55:45;;;;;;;;;12.75;8.00;;;;;;;;5056513;28;45350;-78
2023/05/21 05:58:10;;;;;;;;;14.67;8.00;;;;;;;;5056542;28;45450;-77
2023/05/21 06:00:35;;;;;;;;;14.67;8.00;;;;;;;;5055809;28;45214;-78
2023/05/21 06:03:01;;;;;;;;;13.33;8.33;;;;;;;;5056279;28;45285;-78
2023/05/21 06:05:26;;;;;;;;;13.67;7.67;;;;;;;;5056181;28;45333;-78
2023/05/21 06:07:51;;;;;;;;;12.67;9.67;;;;;;;;5055940;28;45213;-78
2023/05/21 06:10:17;;;;;;;;;11.00;10.00;;;;;;;;5056332;28;45412;-78
2023/05/21 06:12:42;;;;;;;;;12.25;8.75;;;;;;;;5055764;28;45590;-78
2023/05/21 06:15:08;;;;;;;;;11.50;9.25;;;;;;;;5056112;28;45367;-78
2023/05/21 06:17:33;;;;;;;;;6.00;6.00;;;;;;;;5056245;28;45364;-78
2023/05/21 06:19:58;;;;;;;;;12.75;8.00;;;;;;;;5055970;28;45615;-78
2023/05/21 06:22:23;;;;;;;;;13.33;10.00;;;;;;;;5055663;28;45631;-78
2023/05/21 06:24:49;;;;;;;;;11.67;8.33;;;;;;;;5056008;28;45510;-78
2023/05/21 06:27:14;;;;;;;;;9.00;8.00;;;;;;;;5056114;28;45340;-78
2023/05/21 06:29:40;;;;;;;;;12.25;9.25;;;;;;;;5055967;28;45423;-78
2023/05/21 06:32:06;;;;;;;;;13.50;10.00;;;;;;;;5037748;28;47208;-78
2023/05/21 06:34:31;;;;;;;;;9.75;8.00;;;;;;;;5037733;28;45384;-78
2023/05/21 06:36:56;;;;;;;;;8.33;6.00;;;;;;;;5055750;28;45545;-78
2023/05/21 06:39:23;;;;;;;;;12.00;10.33;;;;;;;;5055725;28;45319;-79
2023/05/21 06:41:48;;;;;;;;;10.75;8.50;;;;;;;;5055507;28;47173;-78
2023/05/21 06:44:14;;;;;;;;;10.33;9.33;;;;;;;;5055653;28;45522;-77
2023/05/21 06:46:39;;;;;;;;;12.00;8.75;;;;;;;;5055784;28;45472;-78
2023/05/21 06:49:05;;;;;;;;;15.00;9.33;;;;;;;;5055825;28;45276;-78
2023/05/21 06:51:31;;;;;;;;;8.75;8.00;;;;;;;;5055279;28;46182;-78
2023/05/21 06:53:56;;;;;;;;;13.33;9.67;;;;;;;;5055482;28;45336;-78
2023/05/21 06:56:21;;;;;;;;;10.00;6.67;;;;;;;;5055753;28;45442;-78
2023/05/21 06:58:46;;;;;;;;;17.33;8.00;;;;;;;;5055544;28;45530;-78
2023/05/21 07:01:11;;;;;;;;;19.33;10.67;;;;;;;;5055494;28;46470;-78
2023/05/21 07:03:36;;;;;;;;;8.00;8.00;;;;;;;;5055698;28;45510;-78
2023/05/21 07:06:02;;;;;;;;;10.33;7.33;;;;;;;;5055318;28;45496;-78
2023/05/21 07:08:27;;;;;;;;;11.25;7.75;;;;;;;;5055458;28;45458;-77
2023/05/21 07:10:52;;;;;;;;;16.67;11.33;;;;;;;;5055321;28;45654;-78
2023/05/21 07:13:17;;;;;;;;;13.00;9.67;;;;;;;;5056369;28;45365;-78
2023/05/21 07:15:43;;;;;;;;;7.67;7.00;;;;;;;;5058997;28;45341;-78
2023/05/21 07:18:08;;;;;;;;;11.00;8.00;;;;;;;;5058881;28;45463;-78
2023/05/21 07:20:33;;;;;;;;;14.50;9.00;;;;;;;;5058098;28;46312;-78
2023/05/21 07:22:58;;;;;;;;;8.33;8.33;;;;;;;;5058979;28;45268;-78
2023/05/21 07:25:24;;;;;;;;;6.33;6.33;;;;;;;;5058821;28;45292;-78
2023/05/21 07:27:49;;;;;;;;;13.00;7.33;;;;;;;;5058896;28;45432;-78
2023/05/21 07:30:14;;;;;;;;;13.75;9.25;;;;;;;;5058504;28;45395;-78
2023/05/21 07:32:40;;;;;;;;;10.50;9.00;;;;;;;;5058557;28;45365;-78
2023/05/21 07:35:05;;;;;;;;;9.25;7.00;;;;;;;;5058412;28;45339;-78
2023/05/21 07:37:30;;;;;;;;;6.75;6.50;;;;;;;;5058662;28;45295;-78
2023/05/21 07:39:57;;;;;;;;;13.67;10.33;;;;;;;;5040226;28;46487;-78
2023/05/21 07:42:22;;;;;;;;;9.00;8.00;;;;;;;;5058417;28;45442;-78
2023/05/21 07:44:47;;;;;;;;;15.00;9.33;;;;;;;;5058499;28;45420;-78
2023/05/21 07:47:13;;;;;;;;;12.33;9.00;;;;;;;;5058646;28;45432;-77
2023/05/21 07:49:38;;;;;;;;;10.33;9.33;;;;;;;;5057787;28;46407;-78
2023/05/21 07:52:03;;;;;;;;;13.67;8.00;;;;;;;;5058109;28;45450;-78
2023/05/21 07:54:28;;;;;;;;;15.75;7.50;;;;;;;;5058328;28;45318;-78
2023/05/21 07:56:53;;;;;;;;;11.67;8.00;;;;;;;;5058260;28;45546;-78
2023/05/21 07:59:19;;;;;;;;;12.00;7.67;;;;;;;;5057854;28;46213;-78
2023/05/21 08:01:44;;;;;;;;;9.00;7.00;;;;;;;;5058291;28;45243;-78
2023/05/21 08:04:09;;;;;;;;;7.00;6.67;;;;;;;;5057816;28;45223;-78
2023/05/21 08:06:36;;;;;;;;;10.00;7.00;;;;;;;;5058206;28;45440;-78
2023/05/21 08:09:02;;;;;;;;;8.00;6.00;;;;;;;;5057906;28;46533;-79
2023/05/21 08:11:27;;;;;;;;;9.25;6.75;;;;;;;;5058022;28;45365;-79
2023/05/21 08:13:52;;;;;;;;;9.75;8.00;;;;;;;;5058035;28;45416;-78
2023/05/21 08:16:18;;;;;;;;;11.33;7.67;;;;;;;;5058061;28;45277;-78
2023/05/21 08:18:43;;;;;;;;;6.50;6.50;;;;;;;;5057463;28;46413;-79
2023/05/21 08:21:08;;;;;;;;;7.33;6.33;;;;;;;;5057826;28;45379;-78
2023/05/21 08:23:33;;;;;;;;;11.00;7.00;;;;;;;;5057684;28;45277;-79
2023/05/21 08:25:58;;;;;;;;;12.67;8.00;;;;;;;;5039784;28;45307;-79
2023/05/21 08:28:24;;;;;;;;;8.00;4.67;;;;;;;;5057608;28;46114;-79
2023/05/21 08:30:49;;;;;;;;;7.75;4.00;;;;;;;;5057622;28;45520;-79
2023/05/21 08:33:14;;;;;;;;;12.00;7.67;;;;;;;;5039435;28;45436;-79
2023/05/21 08:35:39;;;;;;;;;7.33;6.33;;;;;;;;5057629;28;45389;-79
2023/05/21 08:38:05;;;;;;;;;9.00;6.67;;;;;;;;5057501;28;45337;-79
2023/05/21 08:40:30;;;;;;;;;7.00;5.00;;;;;;;;5057479;28;45489;-78
2023/05/21 08:42:55;;;;;;;;;6.00;4.00;;;;;;;;5057738;28;45332;-78
2023/05/21 08:45:21;;;;;;;;;8.00;5.50;;;;;;;;5057284;28;45431;-78
2023/05/21 08:47:47;;;;;;;;;5.50;5.00;;;;;;;;5056992;28;46559;-78
2023/05/21 08:50:13;;;;;;;;;5.00;3.00;;;;;;;;5057367;28;45315;-79
2023/05/21 08:52:38;;;;;;;;;7.50;4.00;;;;;;;;5057657;28;45383;-79
2023/05/21 08:55:04;;;;;;;;;5.25;4.00;;;;;;;;5057554;28;45371;-79
2023/05/21 08:57:29;;;;;;;;;4.00;4.00;;;;;;;;5057241;28;47189;-78
2023/05/21 08:59:54;;;;;;;;;6.00;4.00;;;;;;;;5057177;28;45419;-79
2023/05/21 09:02:20;;;;;;;;;8.33;5.00;;;;;;;;5057189;28;46110;-79
2023/05/21 09:04:48;;;;;;;;;9.33;7.33;;;;;;;;5039146;28;45387;-79
2023/05/21 09:07:13;;;;;;;;;8.75;5.00;;;;;;;;5057042;28;45525;-79
2023/05/21 09:09:45;;;;;;;;;7.00;4.00;;;;;;;;5057203;28;45940;-79
2023/05/21 09:12:10;;;;;;;;;7.00;4.50;;;;;;;;5055097;28;45420;-78
2023/05/21 09:14:36;;;;;;;;;6.00;4.67;;;;;;;;5037036;28;45344;-78
2023/05/21 09:17:01;;;;;;;;;6.00;5.00;;;;;;;;5036396;28;46200;-78
2023/05/21 09:19:28;;;;;;;;;8.00;4.00;;;;;;;;5036754;28;45212;-78
2023/05/21 09:21:59;;;;;;;;;5.75;5.00;;;;;;;;5037480;28;45389;-79
2023/05/21 09:24:29;;;;;;;;;8.50;6.75;;;;;;;;5018960;28;45454;-78
2023/05/21 09:26:56;;;;;;;;;7.50;4.00;;;;;;;;5036557;28;46427;-79
2023/05/21 09:29:21;;;;;;;;;7.00;4.75;;;;;;;;5036690;28;45827;-79
2023/05/21 09:31:46;;;;;;;;;6.00;4.67;;;;;;;;5018743;28;45344;-78
2023/05/21 09:34:12;;;;;;;;;5.33;4.67;;;;;;;;5036812;28;45519;-79
2023/05/21 09:36:38;;;;;;;;;7.50;4.50;;;;;;;;5035616;28;46509;-79
2023/05/21 09:39:04;;;;;;;;;6.00;5.00;;;;;;;;5036474;28;45411;-79
2023/05/21 09:41:33;;;;;;;;;6.50;6.25;;;;;;;;5036833;28;45390;-78
2023/05/21 09:44:00;;;;;;;;;10.50;6.75;;;;;;;;5036527;28;45404;-78
2023/05/21 09:46:26;;;;;;;;;8.25;6.25;;;;;;;;5035777;28;46516;-78
2023/05/21 09:48:51;;;;;;;;;6.50;5.50;;;;;;;;5036460;28;45301;-78
2023/05/21 09:51:17;;;;;;;;;8.00;6.00;;;;;;;;5036489;28;45483;-78
2023/05/21 09:53:43;;;;;;;;;11.00;6.75;;;;;;;;5036622;28;45364;-79
2023/05/21 09:56:08;;;;;;;;;6.75;5.00;;;;;;;;5036427;28;46495;-78
2023/05/21 09:58:34;;;;;;;;;8.00;7.00;;;;;;;;5036250;28;45535;-78
2023/05/21 10:00:59;;;;;;;;;6.00;6.00;;;;;;;;5035891;28;45389;-78
2023/05/21 10:03:27;;;;;;;;;12.00;8.00;;;;;;;;5036262;28;45483;-79
2023/05/21 10:05:52;;;;;;;;;10.50;7.25;;;;;;;;5036063;28;46250;-78
2023/05/21 10:08:19;;;;;;;;;12.25;8.00;;;;;;;;5036190;28;45472;-79
2023/05/21 10:10:46;;;;;;;;;11.75;9.50;;;;;;;;5035968;28;45385;-79
2023/05/21 10:13:13;;;;;;;;;8.00;7.25;;;;;;;;5046660;28;45356;-78
2023/05/21 10:15:42;;;;;;;;;6.75;5.75;;;;;;;;5055907;28;46216;-78
2023/05/21 10:18:09;;;;;;;;;7.50;7.50;;;;;;;;5056095;28;45755;-78
2023/05/21 10:20:34;;;;;;;;;13.50;10.00;;;;;;;;5056110;28;45551;-78
2023/05/21 10:23:00;;;;;;;;;9.50;7.00;;;;;;;;5055851;28;45747;-78
2023/05/21 10:25:26;;;;;;;;;10.25;8.00;;;;;;;;5055943;28;46264;-79
2023/05/21 10:27:54;;;;;;;;;9.50;8.75;;;;;;;;5055848;28;45375;-78
2023/05/21 10:30:20;;;;;;;;;16.50;11.00;;;;;;;;5055861;28;45413;-79
2023/05/21 10:32:46;;;;;;;;;16.75;12.00;;;;;;;;5056122;28;45345;-79
2023/05/21 10:35:14;;;;;;;;;13.00;12.00;;;;;;;;5055775;28;46667;-78
2023/05/21 10:37:40;;;;;;;;;13.75;9.25;;;;;;;;5055941;28;45335;-78
2023/05/21 10:40:05;;;;;;;;;12.00;8.50;;;;;;;;5055839;28;45360;-79
2023/05/21 10:42:31;;;;;;;;;11.75;9.25;;;;;;;;5055693;28;45471;-78
2023/05/21 10:45:05;;;;;;;;;10.75;9.00;;;;;;;;5055228;28;46297;-79
2023/05/21 10:47:33;;;;;;;;;9.00;9.00;;;;;;;;5056942;28;46056;-78
2023/05/21 10:50:07;;;;;;;;;12.25;10.25;;;;;;;;5059431;28;45378;-79
2023/05/21 10:52:52;;;;;;;;;12.00;10.00;;;;;;;;5059346;28;45366;-79
2023/05/21 10:55:27;;;;;;;;;12.00;8.75;;;;;;;;4977048;28;46528;-78
2023/05/21 10:57:52;;;;;;;;;8.75;8.75;;;;;;;;4976855;28;45815;-78
2023/05/21 11:00:19;;;;;;;;;11.00;9.00;;;;;;;;4977488;28;45419;-79
2023/05/21 11:02:44;;;;;;;;;8.25;6.50;;;;;;;;4977497;28;45580;-79
2023/05/21 11:05:10;;;;;;;;;8.25;5.75;;;;;;;;4977202;28;46110;-78
2023/05/21 11:07:55;;;;;;;;;8.67;8.67;;;;;;;;4977313;28;45507;-78
2023/05/21 11:10:31;;;;;;;;;7.50;7.25;;;;;;;;4977427;28;45449;-79
2023/05/21 11:13:15;;;;;;;;;12.25;7.50;;;;;;;;4976695;28;45414;-80
2023/05/21 11:15:58;;;;;;;;;10.50;7.25;;;;;;;;4977107;28;46424;-79
2023/05/21 11:18:33;;;;;;;;;11.00;9.50;;;;;;;;4977024;28;45514;-79
2023/05/21 11:21:14;;;;;;;;;9.75;7.00;;;;;;;;4977099;28;45427;-78
2023/05/21 11:23:58;;;;;;;;;8.00;6.25;;;;;;;;4960724;28;45733;-79
2023/05/21 11:26:23;;;;;;;;;6.25;6.25;;;;;;;;4976539;28;46478;-77
2023/05/21 11:28:49;;;;;;;;;9.00;7.25;;;;;;;;4976959;28;45494;-79
2023/05/21 11:31:21;;;;;;;;;14.50;5.75;;;;;;;;4977619;28;45533;-77
2023/05/21 11:33:46;;;;;;;;;6.25;6.00;;;;;;;;5038680;28;45490;-79
2023/05/21 11:36:12;;;;;;;;;11.25;7.00;;;;;;;;5038507;28;46228;-79
2023/05/21 11:38:37;;;;;;;;;7.50;6.50;;;;;;;;5038364;28;45348;-78
2023/05/21 11:41:02;;;;;;;;;6.67;6.00;;;;;;;;5038221;28;45302;-78
2023/05/21 11:43:28;;;;;;;;;7.00;6.75;;;;;;;;5038441;28;45313;-78
2023/05/21 11:45:53;;;;;;;;;7.00;6.00;;;;;;;;5038150;28;45321;-78
2023/05/21 11:48:20;;;;;;;;;8.25;7.00;;;;;;;;5038212;28;45298;-79
2023/05/21 11:50:45;;;;;;;;;9.50;5.75;;;;;;;;5038343;28;45403;-78
2023/05/21 11:53:11;;;;;;;;;13.75;6.75;;;;;;;;5038452;28;45485;-78
2023/05/21 11:55:42;;;;;;;;;8.25;6.00;;;;;;;;5037826;28;46042;-78
2023/05/21 11:58:09;;;;;;;;;8.75;6.00;;;;;;;;5038126;28;45673;-78
2023/05/21 12:00:38;;;;;;;;;9.75;7.50;;;;;;;;5037565;28;45532;-78
2023/05/21 12:03:05;;;;;;;;;4.75;4.50;;;;;;;;5038113;28;45442;-79
2023/05/21 12:05:42;;;;;;;;;6.75;5.00;;;;;;;;5037969;28;45380;-78
2023/05/21 12:08:07;;;;;;;;;5.00;4.00;;;;;;;;5037842;28;45274;-79
2023/05/21 12:10:32;;;;;;;;;5.00;5.00;;;;;;;;5037751;28;45308;-78
2023/05/21 12:13:01;;;;;;;;;5.00;5.00;;;;;;;;5046687;28;45341;-78
2023/05/21 12:15:26;;;;;;;;;4.25;4.25;;;;;;;;5057068;28;45435;-79
2023/05/21 12:17:52;;;;;;;;;8.67;5.00;;;;;;;;5057899;28;45305;-79
2023/05/21 12:20:18;;;;;;;;;10.00;8.00;;;;;;;;5058127;28;45825;-79
2023/05/21 12:22:43;;;;;;;;;6.33;3.67;;;;;;;;5057966;28;45432;-78
2023/05/21 12:25:09;;;;;;;;;9.50;5.00;;;;;;;;5057524;28;46380;-78
2023/05/21 12:27:35;;;;;;;;;36.50;28.50;;;;;;;;5057765;28;45396;-79
2023/05/21 12:30:01;;;;;;;;;19.50;17.00;;;;;;;;5057880;28;45468;-79
2023/05/21 12:32:27;;;;;;;;;8.00;6.50;;;;;;;;5057925;28;45442;-79
2023/05/21 12:34:55;;;;;;;;;11.25;8.75;;;;;;;;5057698;28;46259;-79
2023/05/21 12:37:21;;;;;;;;;7.50;6.50;;;;;;;;5057594;28;45722;-79
2023/05/21 12:39:47;;;;;;;;;7.50;4.50;;;;;;;;5057477;28;45381;-78
2023/05/21 12:42:13;;;;;;;;;8.25;4.00;;;;;;;;5057778;28;45372;-79
2023/05/21 12:44:48;;;;;;;;;7.50;5.00;;;;;;;;5057320;28;45400;-79
2023/05/21 12:47:13;;;;;;;;;4.00;3.00;;;;;;;;5057526;28;45456;-79
2023/05/21 12:49:43;;;;;;;;;4.75;4.75;;;;;;;;5057727;28;45395;-79
2023/05/21 12:52:11;;;;;;;;;5.00;4.00;;;;;;;;5057485;28;45337;-79
2023/05/21 12:54:38;;;;;;;;;7.25;5.25;;;;;;;;5056999;28;45472;-79
2023/05/21 12:57:06;;;;;;;;;4.50;3.00;;;;;;;;5057340;28;45782;-79
2023/05/21 12:59:58;;;;;;;;;6.00;4.50;;;;;;;;5057409;28;45523;-79
2023/05/21 13:02:24;;;;;;;;;6.25;6.25;;;;;;;;5053203;28;45371;-79
2023/05/21 13:04:59;;;;;;;;;9.50;4.75;;;;;;;;5057308;28;45535;-79
2023/05/21 13:07:25;;;;;;;;;6.00;3.50;;;;;;;;5057181;28;46393;-79
2023/05/21 13:09:52;;;;;;;;;5.00;5.00;;;;;;;;5056821;28;45342;-79
2023/05/21 13:12:17;;;;;;;;;7.00;4.00;;;;;;;;5056091;28;45467;-79
2023/05/21 13:14:42;;;;;;;;;7.25;4.25;;;;;;;;5056912;28;45350;-79
2023/05/21 13:17:08;;;;;;;;;8.00;5.33;;;;;;;;5057186;28;45240;-78
2023/05/21 13:19:33;;;;;;;;;5.75;4.00;;;;;;;;5057155;28;45276;-78
2023/05/21 13:21:58;;;;;;;;;5.50;4.50;;;;;;;;5057056;28;45610;-77
2023/05/21 13:24:23;;;;;;;;;8.67;5.00;;;;;;;;5056597;28;46553;-79
2023/05/21 13:26:48;;;;;;;;;8.00;4.00;;;;;;;;5056880;28;45280;-79
2023/05/21 13:29:14;;;;;;;;;5.33;5.00;;;;;;;;5057116;28;45232;-79
2023/05/21 13:31:42;;;;;;;;;4.00;4.00;;;;;;;;5056983;28;45265;-79
2023/05/21 13:34:08;;;;;;;;;6.50;4.50;;;;;;;;5056818;28;46001;-79
2023/05/21 13:36:34;;;;;;;;;5.00;4.75;;;;;;;;5056273;28;45375;-79
2023/05/21 13:38:59;;;;;;;;;5.75;4.00;;;;;;;;5054331;28;45977;-79
2023/05/21 13:41:24;;;;;;;;;9.00;6.00;;;;;;;;5055426;28;45340;-79
2023/05/21 13:43:50;;;;;;;;;7.67;5.00;;;;;;;;5056696;28;46179;-79
2023/05/21 13:46:15;;;;;;;;;8.00;5.33;;;;;;;;5056506;28;45316;-79
2023/05/21 13:48:42;;;;;;;;;6.33;4.33;;;;;;;;5056737;28;45320;-79
2023/05/21 13:51:07;;;;;;;;;3.25;3.25;;;;;;;;5056439;28;45570;-79
2023/05/21 13:53:32;;;;;;;;;6.00;5.00;;;;;;;;5056158;28;47033;-79
2023/05/21 13:55:57;;;;;;;;;4.33;4.33;;;;;;;;5056492;28;45465;-79
2023/05/21 13:58:22;;;;;;;;;4.33;4.00;;;;;;;;5056637;28;45333;-78
2023/05/21 14:00:47;;;;;;;;;4.33;3.67;;;;;;;;5056574;28;45423;-79
2023/05/21 14:03:13;;;;;;;;;7.00;5.00;;;;;;;;5056501;28;45467;-78
2023/05/21 14:05:38;;;;;;;;;5.33;4.00;;;;;;;;5056418;28;45418;-79
2023/05/21 14:08:03;;;;;;;;;3.67;3.67;;;;;;;;5056249;28;45284;-79
2023/05/21 14:10:28;;;;;;;;;7.50;4.75;;;;;;;;5056443;28;45230;-79
2023/05/21 14:12:54;;;;;;;;;6.00;5.00;;;;;;;;5055969;28;46212;-79
2023/05/21 14:15:19;;;;;;;;;4.75;4.75;;;;;;;;5056243;28;45438;-79
2023/05/21 14:17:45;;;;;;;;;3.50;3.50;;;;;;;;5056135;28;45420;-79
2023/05/21 14:20:10;;;;;;;;;7.25;5.00;;;;;;;;5056205;28;45518;-79
2023/05/21 14:22:36;;;;;;;;;7.50;5.50;;;;;;;;5055349;28;45426;-79
2023/05/21 14:25:02;;;;;;;;;5.75;4.00;;;;;;;;5055955;28;45403;-79
2023/05/21 14:27:27;;;;;;;;;5.25;3.75;;;;;;;;5056122;28;45293;-79
2023/05/21 14:29:52;;;;;;;;;5.00;4.00;;;;;;;;5056068;28;45348;-79